sensor_id;sensor_type;location;lat;lon;timestamp;temperature;humidity
20337;DHT22;10326;53.660;10.200;2022-08-04T00:01:21;25.80;65.20
20337;DHT22;10326;53.660;10.200;2022-08-04T00:04:00;25.70;65.50
20337;DHT22;10326;53.660;10.200;2022-08-04T00:06:37;25.70;65.60
20337;DHT22;10326;53.660;10.200;2022-08-04T00:09:15;25.70;65.60
20337;DHT22;10326;53.660;10.200;2022-08-04T00:11:45;25.70;65.80
20337;DHT22;10326;53.660;10.200;2022-08-04T00:14:15;25.70;65.80
20337;DHT22;10326;53.660;10.200;2022-08-04T00:16:45;25.60;65.90
20337;DHT22;10326;53.660;10.200;2022-08-04T00:19:18;25.60;66.10
20337;DHT22;10326;53.660;10.200;2022-08-04T00:21:56;25.60;66.80
20337;DHT22;10326;53.660;10.200;2022-08-04T00:24:29;25.60;66.50
20337;DHT22;10326;53.660;10.200;2022-08-04T00:26:57;25.60;66.40
20337;DHT22;10326;53.660;10.200;2022-08-04T00:29:24;25.50;66.30
20337;DHT22;10326;53.660;10.200;2022-08-04T00:31:54;25.50;66.30
20337;DHT22;10326;53.660;10.200;2022-08-04T00:34:25;25.50;66.70
20337;DHT22;10326;53.660;10.200;2022-08-04T00:36:54;25.50;67.00
20337;DHT22;10326;53.660;10.200;2022-08-04T00:39:21;25.50;66.70
20337;DHT22;10326;53.660;10.200;2022-08-04T00:42:19;25.50;66.90
20337;DHT22;10326;53.660;10.200;2022-08-04T00:45:16;25.40;67.20
20337;DHT22;10326;53.660;10.200;2022-08-04T00:48:19;25.40;66.90
20337;DHT22;10326;53.660;10.200;2022-08-04T00:51:01;25.30;67.00
20337;DHT22;10326;53.660;10.200;2022-08-04T00:53:44;25.30;67.10
20337;DHT22;10326;53.660;10.200;2022-08-04T00:56:31;25.30;67.20
20337;DHT22;10326;53.660;10.200;2022-08-04T00:59:13;25.20;67.30
20337;DHT22;10326;53.660;10.200;2022-08-04T01:01:58;25.20;67.60
20337;DHT22;10326;53.660;10.200;2022-08-04T01:04:40;25.20;67.50
20337;DHT22;10326;53.660;10.200;2022-08-04T01:07:25;25.10;67.70
20337;DHT22;10326;53.660;10.200;2022-08-04T01:10:20;25.10;67.90
20337;DHT22;10326;53.660;10.200;2022-08-04T01:13:16;25.00;67.80
20337;DHT22;10326;53.660;10.200;2022-08-04T01:15:56;25.00;68.00
20337;DHT22;10326;53.660;10.200;2022-08-04T01:18:32;25.00;67.90
20337;DHT22;10326;53.660;10.200;2022-08-04T01:24:44;24.90;68.50
20337;DHT22;10326;53.660;10.200;2022-08-04T01:27:42;24.90;68.30
20337;DHT22;10326;53.660;10.200;2022-08-04T01:30:21;24.90;68.60
20337;DHT22;10326;53.660;10.200;2022-08-04T01:32:51;24.80;68.40
20337;DHT22;10326;53.660;10.200;2022-08-04T01:35:27;24.70;68.60
20337;DHT22;10326;53.660;10.200;2022-08-04T01:38:00;24.70;68.70
20337;DHT22;10326;53.660;10.200;2022-08-04T01:40:36;24.70;68.80
20337;DHT22;10326;53.660;10.200;2022-08-04T01:43:04;24.70;68.60
20337;DHT22;10326;53.660;10.200;2022-08-04T01:45:34;24.60;68.40
20337;DHT22;10326;53.660;10.200;2022-08-04T01:48:03;24.60;69.00
20337;DHT22;10326;53.660;10.200;2022-08-04T01:50:34;24.60;69.10
20337;DHT22;10326;53.660;10.200;2022-08-04T01:53:03;24.60;69.30
20337;DHT22;10326;53.660;10.200;2022-08-04T01:55:30;24.50;69.30
20337;DHT22;10326;53.660;10.200;2022-08-04T01:57:59;24.50;69.40
20337;DHT22;10326;53.660;10.200;2022-08-04T02:00:28;24.50;69.50
20337;DHT22;10326;53.660;10.200;2022-08-04T02:02:56;24.40;69.40
20337;DHT22;10326;53.660;10.200;2022-08-04T02:05:25;24.40;69.50
20337;DHT22;10326;53.660;10.200;2022-08-04T02:08:09;24.40;69.60
20337;DHT22;10326;53.660;10.200;2022-08-04T02:10:52;24.40;70.00
20337;DHT22;10326;53.660;10.200;2022-08-04T02:13:46;24.30;69.90
20337;DHT22;10326;53.660;10.200;2022-08-04T02:16:28;24.30;69.90
20337;DHT22;10326;53.660;10.200;2022-08-04T02:19:09;24.30;70.00
20337;DHT22;10326;53.660;10.200;2022-08-04T02:21:40;24.20;70.00
20337;DHT22;10326;53.660;10.200;2022-08-04T02:24:14;24.20;69.70
20337;DHT22;10326;53.660;10.200;2022-08-04T02:26:42;24.10;70.40
20337;DHT22;10326;53.660;10.200;2022-08-04T02:29:19;24.10;69.80
20337;DHT22;10326;53.660;10.200;2022-08-04T02:31:48;24.10;70.10
20337;DHT22;10326;53.660;10.200;2022-08-04T02:34:24;24.10;70.20
20337;DHT22;10326;53.660;10.200;2022-08-04T02:36:55;24.00;70.60
20337;DHT22;10326;53.660;10.200;2022-08-04T02:39:22;24.00;70.50
20337;DHT22;10326;53.660;10.200;2022-08-04T02:41:53;24.00;70.50
20337;DHT22;10326;53.660;10.200;2022-08-04T02:44:22;24.00;70.70
20337;DHT22;10326;53.660;10.200;2022-08-04T02:46:52;23.90;70.70
20337;DHT22;10326;53.660;10.200;2022-08-04T02:49:22;23.90;70.60
20337;DHT22;10326;53.660;10.200;2022-08-04T02:51:50;23.90;70.80
20337;DHT22;10326;53.660;10.200;2022-08-04T02:54:22;23.90;70.70
20337;DHT22;10326;53.660;10.200;2022-08-04T02:56:55;23.90;71.00
20337;DHT22;10326;53.660;10.200;2022-08-04T02:59:25;23.80;70.80
20337;DHT22;10326;53.660;10.200;2022-08-04T03:01:55;23.80;71.00
20337;DHT22;10326;53.660;10.200;2022-08-04T03:04:44;23.80;71.20
20337;DHT22;10326;53.660;10.200;2022-08-04T03:17:13;23.70;71.30
20337;DHT22;10326;53.660;10.200;2022-08-04T03:20:21;23.70;71.30
20337;DHT22;10326;53.660;10.200;2022-08-04T03:23:41;23.60;71.20
20337;DHT22;10326;53.660;10.200;2022-08-04T03:27:10;23.60;71.30
20337;DHT22;10326;53.660;10.200;2022-08-04T03:30:00;23.60;71.30
20337;DHT22;10326;53.660;10.200;2022-08-04T03:32:49;23.60;71.50
20337;DHT22;10326;53.660;10.200;2022-08-04T03:36:06;23.50;71.70
20337;DHT22;10326;53.660;10.200;2022-08-04T03:39:13;23.50;71.80
20337;DHT22;10326;53.660;10.200;2022-08-04T03:52:55;23.40;71.90
20337;DHT22;10326;53.660;10.200;2022-08-04T03:55:54;23.40;72.10
20337;DHT22;10326;53.660;10.200;2022-08-04T03:58:52;23.30;72.20
20337;DHT22;10326;53.660;10.200;2022-08-04T04:01:42;23.30;72.20
20337;DHT22;10326;53.660;10.200;2022-08-04T04:04:41;23.30;72.30
20337;DHT22;10326;53.660;10.200;2022-08-04T04:10:45;23.30;72.40
20337;DHT22;10326;53.660;10.200;2022-08-04T04:13:33;23.20;72.50
20337;DHT22;10326;53.660;10.200;2022-08-04T04:16:31;23.20;72.70
20337;DHT22;10326;53.660;10.200;2022-08-04T04:19:27;23.20;72.90
20337;DHT22;10326;53.660;10.200;2022-08-04T04:22:28;23.10;72.90
20337;DHT22;10326;53.660;10.200;2022-08-04T04:25:15;23.20;73.20
20337;DHT22;10326;53.660;10.200;2022-08-04T04:28:04;23.10;73.10
20337;DHT22;10326;53.660;10.200;2022-08-04T04:30:50;23.20;73.40
20337;DHT22;10326;53.660;10.200;2022-08-04T04:33:36;23.20;73.40
20337;DHT22;10326;53.660;10.200;2022-08-04T04:36:12;23.10;73.60
20337;DHT22;10326;53.660;10.200;2022-08-04T04:39:00;23.10;73.50
20337;DHT22;10326;53.660;10.200;2022-08-04T04:42:01;23.10;73.80
20337;DHT22;10326;53.660;10.200;2022-08-04T04:45:02;23.10;73.80
20337;DHT22;10326;53.660;10.200;2022-08-04T04:47:45;23.20;74.00
20337;DHT22;10326;53.660;10.200;2022-08-04T04:50:23;23.10;74.00
20337;DHT22;10326;53.660;10.200;2022-08-04T04:53:00;23.10;74.10
20337;DHT22;10326;53.660;10.200;2022-08-04T04:55:37;23.10;74.30
20337;DHT22;10326;53.660;10.200;2022-08-04T04:58:11;23.10;74.40
20337;DHT22;10326;53.660;10.200;2022-08-04T05:00:54;23.10;74.70
20337;DHT22;10326;53.660;10.200;2022-08-04T05:03:43;23.20;74.90
20337;DHT22;10326;53.660;10.200;2022-08-04T05:06:37;23.20;75.10
20337;DHT22;10326;53.660;10.200;2022-08-04T05:09:28;23.20;75.20
20337;DHT22;10326;53.660;10.200;2022-08-04T05:12:21;23.20;75.40
20337;DHT22;10326;53.660;10.200;2022-08-04T05:14:59;23.20;75.90
20337;DHT22;10326;53.660;10.200;2022-08-04T05:17:35;23.30;75.80
20337;DHT22;10326;53.660;10.200;2022-08-04T05:20:07;23.30;76.30
20337;DHT22;10326;53.660;10.200;2022-08-04T05:22:39;23.30;76.20
20337;DHT22;10326;53.660;10.200;2022-08-04T05:25:13;23.40;76.50
20337;DHT22;10326;53.660;10.200;2022-08-04T05:27:50;23.40;76.70
20337;DHT22;10326;53.660;10.200;2022-08-04T05:30:22;23.50;76.80
20337;DHT22;10326;53.660;10.200;2022-08-04T05:32:55;23.50;77.20
20337;DHT22;10326;53.660;10.200;2022-08-04T05:35:29;23.50;77.70
20337;DHT22;10326;53.660;10.200;2022-08-04T05:37:59;23.60;78.00
20337;DHT22;10326;53.660;10.200;2022-08-04T05:40:28;23.70;78.40
20337;DHT22;10326;53.660;10.200;2022-08-04T05:42:56;23.70;78.80
20337;DHT22;10326;53.660;10.200;2022-08-04T05:45:26;23.80;79.00
20337;DHT22;10326;53.660;10.200;2022-08-04T05:47:53;23.80;79.20
20337;DHT22;10326;53.660;10.200;2022-08-04T05:50:21;23.90;79.10
20337;DHT22;10326;53.660;10.200;2022-08-04T05:52:49;23.90;79.30
20337;DHT22;10326;53.660;10.200;2022-08-04T05:55:18;24.00;79.60
20337;DHT22;10326;53.660;10.200;2022-08-04T05:57:47;24.00;79.70
20337;DHT22;10326;53.660;10.200;2022-08-04T06:00:15;24.10;80.00
20337;DHT22;10326;53.660;10.200;2022-08-04T06:02:46;24.10;80.00
20337;DHT22;10326;53.660;10.200;2022-08-04T06:05:15;24.20;80.20
20337;DHT22;10326;53.660;10.200;2022-08-04T06:07:44;24.30;80.30
20337;DHT22;10326;53.660;10.200;2022-08-04T06:10:11;24.30;80.40
20337;DHT22;10326;53.660;10.200;2022-08-04T06:12:43;24.40;81.30
20337;DHT22;10326;53.660;10.200;2022-08-04T06:15:17;24.40;80.90
20337;DHT22;10326;53.660;10.200;2022-08-04T06:17:48;24.50;81.00
20337;DHT22;10326;53.660;10.200;2022-08-04T06:20:18;24.60;81.20
20337;DHT22;10326;53.660;10.200;2022-08-04T06:22:49;24.60;81.10
20337;DHT22;10326;53.660;10.200;2022-08-04T06:25:21;24.70;81.20
20337;DHT22;10326;53.660;10.200;2022-08-04T06:27:50;24.70;81.20
20337;DHT22;10326;53.660;10.200;2022-08-04T06:30:18;24.80;81.30
20337;DHT22;10326;53.660;10.200;2022-08-04T06:32:52;24.90;81.20
20337;DHT22;10326;53.660;10.200;2022-08-04T06:35:23;24.90;81.20
20337;DHT22;10326;53.660;10.200;2022-08-04T06:37:51;25.00;81.10
20337;DHT22;10326;53.660;10.200;2022-08-04T06:40:21;25.00;81.00
20337;DHT22;10326;53.660;10.200;2022-08-04T06:42:51;25.00;80.90
20337;DHT22;10326;53.660;10.200;2022-08-04T06:45:19;25.10;81.10
20337;DHT22;10326;53.660;10.200;2022-08-04T06:47:47;25.20;80.70
20337;DHT22;10326;53.660;10.200;2022-08-04T06:50:17;25.20;80.80
20337;DHT22;10326;53.660;10.200;2022-08-04T06:52:45;25.30;80.80
20337;DHT22;10326;53.660;10.200;2022-08-04T06:55:13;25.30;80.90
20337;DHT22;10326;53.660;10.200;2022-08-04T06:57:40;25.30;80.50
20337;DHT22;10326;53.660;10.200;2022-08-04T07:00:11;25.40;80.60
20337;DHT22;10326;53.660;10.200;2022-08-04T07:02:45;25.40;80.70
20337;DHT22;10326;53.660;10.200;2022-08-04T07:05:17;25.50;81.00
20337;DHT22;10326;53.660;10.200;2022-08-04T07:07:45;25.50;80.70
20337;DHT22;10326;53.660;10.200;2022-08-04T07:10:14;25.60;80.50
20337;DHT22;10326;53.660;10.200;2022-08-04T07:12:42;25.60;80.60
20337;DHT22;10326;53.660;10.200;2022-08-04T07:15:10;25.70;80.80
20337;DHT22;10326;53.660;10.200;2022-08-04T07:17:37;25.70;80.80
20337;DHT22;10326;53.660;10.200;2022-08-04T07:20:06;25.80;81.10
20337;DHT22;10326;53.660;10.200;2022-08-04T07:22:35;25.80;81.00
20337;DHT22;10326;53.660;10.200;2022-08-04T07:25:08;25.90;81.10
20337;DHT22;10326;53.660;10.200;2022-08-04T07:27:37;25.90;81.10
20337;DHT22;10326;53.660;10.200;2022-08-04T07:30:06;26.00;81.00
20337;DHT22;10326;53.660;10.200;2022-08-04T07:32:34;26.10;81.10
20337;DHT22;10326;53.660;10.200;2022-08-04T07:35:02;26.10;80.80
20337;DHT22;10326;53.660;10.200;2022-08-04T07:37:30;26.20;80.50
20337;DHT22;10326;53.660;10.200;2022-08-04T07:39:59;26.30;80.40
20337;DHT22;10326;53.660;10.200;2022-08-04T07:42:27;26.30;80.10
20337;DHT22;10326;53.660;10.200;2022-08-04T07:44:54;26.40;80.10
20337;DHT22;10326;53.660;10.200;2022-08-04T07:47:21;26.50;80.30
20337;DHT22;10326;53.660;10.200;2022-08-04T07:49:48;26.50;80.10
20337;DHT22;10326;53.660;10.200;2022-08-04T07:52:16;26.60;80.10
20337;DHT22;10326;53.660;10.200;2022-08-04T07:54:43;26.70;79.90
20337;DHT22;10326;53.660;10.200;2022-08-04T07:57:12;26.70;79.90
20337;DHT22;10326;53.660;10.200;2022-08-04T07:59:41;26.80;79.30
20337;DHT22;10326;53.660;10.200;2022-08-04T08:02:08;26.90;78.90
20337;DHT22;10326;53.660;10.200;2022-08-04T08:04:38;26.90;78.90
20337;DHT22;10326;53.660;10.200;2022-08-04T08:07:05;27.00;78.70
20337;DHT22;10326;53.660;10.200;2022-08-04T08:09:33;27.00;78.70
20337;DHT22;10326;53.660;10.200;2022-08-04T08:12:01;27.10;78.50
20337;DHT22;10326;53.660;10.200;2022-08-04T08:14:29;27.20;78.10
20337;DHT22;10326;53.660;10.200;2022-08-04T08:16:58;27.20;78.00
20337;DHT22;10326;53.660;10.200;2022-08-04T08:19:27;27.30;78.10
20337;DHT22;10326;53.660;10.200;2022-08-04T08:21:54;27.40;78.10
20337;DHT22;10326;53.660;10.200;2022-08-04T08:24:21;27.40;77.80
20337;DHT22;10326;53.660;10.200;2022-08-04T08:26:49;27.50;77.70
20337;DHT22;10326;53.660;10.200;2022-08-04T08:29:17;27.60;77.40
20337;DHT22;10326;53.660;10.200;2022-08-04T08:31:47;27.70;77.00
20337;DHT22;10326;53.660;10.200;2022-08-04T08:34:14;27.70;76.70
20337;DHT22;10326;53.660;10.200;2022-08-04T08:36:44;27.80;76.40
20337;DHT22;10326;53.660;10.200;2022-08-04T08:39:17;27.90;76.10
20337;DHT22;10326;53.660;10.200;2022-08-04T08:42:11;28.00;75.30
20337;DHT22;10326;53.660;10.200;2022-08-04T08:48:27;28.20;74.80
20337;DHT22;10326;53.660;10.200;2022-08-04T08:51:22;28.30;75.50
20337;DHT22;10326;53.660;10.200;2022-08-04T08:57:33;28.50;74.50
20337;DHT22;10326;53.660;10.200;2022-08-04T09:00:15;28.60;73.90
20337;DHT22;10326;53.660;10.200;2022-08-04T09:03:22;28.70;74.10
20337;DHT22;10326;53.660;10.200;2022-08-04T09:12:39;29.00;72.30
20337;DHT22;10326;53.660;10.200;2022-08-04T09:15:15;29.10;72.90
20337;DHT22;10326;53.660;10.200;2022-08-04T09:17:47;29.10;71.40
20337;DHT22;10326;53.660;10.200;2022-08-04T09:20:27;29.20;71.00
20337;DHT22;10326;53.660;10.200;2022-08-04T09:23:07;29.30;70.50
20337;DHT22;10326;53.660;10.200;2022-08-04T09:25:47;29.40;69.90
20337;DHT22;10326;53.660;10.200;2022-08-04T09:28:23;29.40;69.10
20337;DHT22;10326;53.660;10.200;2022-08-04T09:30:56;29.50;68.00
20337;DHT22;10326;53.660;10.200;2022-08-04T09:33:37;29.60;67.60
20337;DHT22;10326;53.660;10.200;2022-08-04T09:36:18;29.70;66.60
20337;DHT22;10326;53.660;10.200;2022-08-04T09:39:02;29.70;66.90
20337;DHT22;10326;53.660;10.200;2022-08-04T09:41:40;29.80;64.60
20337;DHT22;10326;53.660;10.200;2022-08-04T09:44:20;29.90;65.30
20337;DHT22;10326;53.660;10.200;2022-08-04T09:46:59;30.00;64.60
20337;DHT22;10326;53.660;10.200;2022-08-04T09:49:37;30.00;64.20
20337;DHT22;10326;53.660;10.200;2022-08-04T09:52:15;30.10;63.00
20337;DHT22;10326;53.660;10.200;2022-08-04T09:54:52;30.20;63.70
20337;DHT22;10326;53.660;10.200;2022-08-04T09:57:38;30.30;62.80
20337;DHT22;10326;53.660;10.200;2022-08-04T10:00:12;30.40;62.10
20337;DHT22;10326;53.660;10.200;2022-08-04T10:02:43;30.50;61.60
20337;DHT22;10326;53.660;10.200;2022-08-04T10:05:15;30.50;61.50
20337;DHT22;10326;53.660;10.200;2022-08-04T10:08:01;30.60;60.90
20337;DHT22;10326;53.660;10.200;2022-08-04T10:10:40;30.70;60.50
20337;DHT22;10326;53.660;10.200;2022-08-04T10:13:25;30.80;59.60
20337;DHT22;10326;53.660;10.200;2022-08-04T10:16:10;30.80;59.10
20337;DHT22;10326;53.660;10.200;2022-08-04T10:18:54;30.90;58.80
20337;DHT22;10326;53.660;10.200;2022-08-04T10:21:37;31.00;59.20
20337;DHT22;10326;53.660;10.200;2022-08-04T10:24:24;31.10;58.70
20337;DHT22;10326;53.660;10.200;2022-08-04T10:27:00;31.10;58.90
20337;DHT22;10326;53.660;10.200;2022-08-04T10:29:37;31.20;58.00
20337;DHT22;10326;53.660;10.200;2022-08-04T10:32:13;31.30;57.30
20337;DHT22;10326;53.660;10.200;2022-08-04T10:34:47;31.40;57.40
20337;DHT22;10326;53.660;10.200;2022-08-04T10:37:28;31.40;57.80
20337;DHT22;10326;53.660;10.200;2022-08-04T10:40:03;31.60;57.40
20337;DHT22;10326;53.660;10.200;2022-08-04T10:42:57;31.70;57.50
20337;DHT22;10326;53.660;10.200;2022-08-04T10:45:31;31.80;56.60
20337;DHT22;10326;53.660;10.200;2022-08-04T10:48:05;31.90;57.30
20337;DHT22;10326;53.660;10.200;2022-08-04T10:50:36;32.00;56.80
20337;DHT22;10326;53.660;10.200;2022-08-04T10:53:11;32.00;56.90
20337;DHT22;10326;53.660;10.200;2022-08-04T10:55:45;32.10;56.60
20337;DHT22;10326;53.660;10.200;2022-08-04T10:58:19;32.20;56.20
20337;DHT22;10326;53.660;10.200;2022-08-04T11:00:49;32.30;56.00
20337;DHT22;10326;53.660;10.200;2022-08-04T11:03:25;32.30;55.50
20337;DHT22;10326;53.660;10.200;2022-08-04T11:05:59;32.40;54.60
20337;DHT22;10326;53.660;10.200;2022-08-04T11:08:31;32.40;55.40
20337;DHT22;10326;53.660;10.200;2022-08-04T11:11:06;32.50;54.90
20337;DHT22;10326;53.660;10.200;2022-08-04T11:13:41;32.50;54.50
20337;DHT22;10326;53.660;10.200;2022-08-04T11:16:15;32.60;54.50
20337;DHT22;10326;53.660;10.200;2022-08-04T11:18:48;32.70;53.50
20337;DHT22;10326;53.660;10.200;2022-08-04T11:21:27;32.70;53.40
20337;DHT22;10326;53.660;10.200;2022-08-04T11:24:02;32.80;53.50
20337;DHT22;10326;53.660;10.200;2022-08-04T11:26:40;32.90;52.60
20337;DHT22;10326;53.660;10.200;2022-08-04T11:29:16;32.90;52.60
20337;DHT22;10326;53.660;10.200;2022-08-04T11:31:49;33.00;52.80
20337;DHT22;10326;53.660;10.200;2022-08-04T11:34:19;33.10;52.60
20337;DHT22;10326;53.660;10.200;2022-08-04T11:36:51;33.20;52.20
20337;DHT22;10326;53.660;10.200;2022-08-04T11:39:28;33.30;51.90
20337;DHT22;10326;53.660;10.200;2022-08-04T11:42:12;33.40;51.90
20337;DHT22;10326;53.660;10.200;2022-08-04T11:44:47;33.50;51.40
20337;DHT22;10326;53.660;10.200;2022-08-04T11:47:24;33.60;51.10
20337;DHT22;10326;53.660;10.200;2022-08-04T11:50:02;33.70;50.90
20337;DHT22;10326;53.660;10.200;2022-08-04T11:52:33;33.80;50.60
20337;DHT22;10326;53.660;10.200;2022-08-04T11:55:03;33.80;50.60
20337;DHT22;10326;53.660;10.200;2022-08-04T11:57:34;33.90;50.80
20337;DHT22;10326;53.660;10.200;2022-08-04T12:00:05;34.00;50.70
20337;DHT22;10326;53.660;10.200;2022-08-04T12:02:57;34.10;50.90
20337;DHT22;10326;53.660;10.200;2022-08-04T12:05:34;34.20;51.30
20337;DHT22;10326;53.660;10.200;2022-08-04T12:08:22;34.20;50.40
20337;DHT22;10326;53.660;10.200;2022-08-04T12:11:04;34.30;50.70
20337;DHT22;10326;53.660;10.200;2022-08-04T12:13:43;34.30;50.40
20337;DHT22;10326;53.660;10.200;2022-08-04T12:16:19;34.40;50.00
20337;DHT22;10326;53.660;10.200;2022-08-04T12:18:54;34.50;50.40
20337;DHT22;10326;53.660;10.200;2022-08-04T12:21:28;34.60;49.60
20337;DHT22;10326;53.660;10.200;2022-08-04T12:24:02;34.70;48.90
20337;DHT22;10326;53.660;10.200;2022-08-04T12:26:35;34.70;49.10
20337;DHT22;10326;53.660;10.200;2022-08-04T12:29:06;34.80;48.80
20337;DHT22;10326;53.660;10.200;2022-08-04T12:31:41;34.90;48.80
20337;DHT22;10326;53.660;10.200;2022-08-04T12:34:15;34.90;48.10
20337;DHT22;10326;53.660;10.200;2022-08-04T12:36:50;35.10;48.30
20337;DHT22;10326;53.660;10.200;2022-08-04T12:39:21;35.20;47.70
20337;DHT22;10326;53.660;10.200;2022-08-04T12:41:57;35.30;47.20
20337;DHT22;10326;53.660;10.200;2022-08-04T12:44:33;35.40;47.00
20337;DHT22;10326;53.660;10.200;2022-08-04T12:47:02;35.50;46.60
20337;DHT22;10326;53.660;10.200;2022-08-04T12:49:32;35.60;46.10
20337;DHT22;10326;53.660;10.200;2022-08-04T12:52:04;35.60;46.40
20337;DHT22;10326;53.660;10.200;2022-08-04T12:54:33;35.60;45.80
20337;DHT22;10326;53.660;10.200;2022-08-04T12:57:03;35.70;45.20
20337;DHT22;10326;53.660;10.200;2022-08-04T12:59:38;35.70;44.60
20337;DHT22;10326;53.660;10.200;2022-08-04T13:02:10;35.70;44.30
20337;DHT22;10326;53.660;10.200;2022-08-04T13:04:41;35.70;45.00
20337;DHT22;10326;53.660;10.200;2022-08-04T13:07:14;35.70;44.80
20337;DHT22;10326;53.660;10.200;2022-08-04T13:09:46;35.80;45.30
20337;DHT22;10326;53.660;10.200;2022-08-04T13:12:14;35.80;45.10
20337;DHT22;10326;53.660;10.200;2022-08-04T13:14:48;35.80;44.30
20337;DHT22;10326;53.660;10.200;2022-08-04T13:17:17;35.90;43.70
20337;DHT22;10326;53.660;10.200;2022-08-04T13:19:47;35.90;44.20
20337;DHT22;10326;53.660;10.200;2022-08-04T13:22:23;35.90;43.30
20337;DHT22;10326;53.660;10.200;2022-08-04T13:24:51;35.90;43.60
20337;DHT22;10326;53.660;10.200;2022-08-04T13:27:19;35.90;43.80
20337;DHT22;10326;53.660;10.200;2022-08-04T13:29:50;36.00;42.90
20337;DHT22;10326;53.660;10.200;2022-08-04T13:32:22;36.00;43.30
20337;DHT22;10326;53.660;10.200;2022-08-04T13:34:54;36.10;42.80
20337;DHT22;10326;53.660;10.200;2022-08-04T13:37:25;36.10;42.60
20337;DHT22;10326;53.660;10.200;2022-08-04T13:39:57;36.20;42.60
20337;DHT22;10326;53.660;10.200;2022-08-04T13:42:25;36.30;42.70
20337;DHT22;10326;53.660;10.200;2022-08-04T13:44:56;36.40;42.70
20337;DHT22;10326;53.660;10.200;2022-08-04T13:47:28;36.50;41.80
20337;DHT22;10326;53.660;10.200;2022-08-04T13:50:13;36.50;42.30
20337;DHT22;10326;53.660;10.200;2022-08-04T13:52:43;36.60;41.20
20337;DHT22;10326;53.660;10.200;2022-08-04T13:55:19;36.70;41.40
20337;DHT22;10326;53.660;10.200;2022-08-04T13:57:54;36.80;40.80
20337;DHT22;10326;53.660;10.200;2022-08-04T14:00:25;36.80;39.90
20337;DHT22;10326;53.660;10.200;2022-08-04T14:02:59;36.80;39.70
20337;DHT22;10326;53.660;10.200;2022-08-04T14:05:29;36.80;39.80
20337;DHT22;10326;53.660;10.200;2022-08-04T14:08:04;36.80;39.40
20337;DHT22;10326;53.660;10.200;2022-08-04T14:10:32;36.70;39.70
20337;DHT22;10326;53.660;10.200;2022-08-04T14:13:03;36.60;39.30
20337;DHT22;10326;53.660;10.200;2022-08-04T14:15:42;36.50;39.50
20337;DHT22;10326;53.660;10.200;2022-08-04T14:18:18;36.50;39.40
20337;DHT22;10326;53.660;10.200;2022-08-04T14:21:05;36.40;39.40
20337;DHT22;10326;53.660;10.200;2022-08-04T14:23:44;36.30;39.70
20337;DHT22;10326;53.660;10.200;2022-08-04T14:26:23;36.30;38.90
20337;DHT22;10326;53.660;10.200;2022-08-04T14:28:53;36.30;39.40
20337;DHT22;10326;53.660;10.200;2022-08-04T14:31:25;36.40;39.60
20337;DHT22;10326;53.660;10.200;2022-08-04T14:33:53;36.40;39.40
20337;DHT22;10326;53.660;10.200;2022-08-04T14:36:20;36.50;39.50
20337;DHT22;10326;53.660;10.200;2022-08-04T14:38:53;36.50;38.90
20337;DHT22;10326;53.660;10.200;2022-08-04T14:41:23;36.60;38.30
20337;DHT22;10326;53.660;10.200;2022-08-04T14:43:52;36.60;38.40
20337;DHT22;10326;53.660;10.200;2022-08-04T14:46:21;36.70;38.40
20337;DHT22;10326;53.660;10.200;2022-08-04T14:49:04;36.70;38.30
20337;DHT22;10326;53.660;10.200;2022-08-04T14:51:37;36.70;38.40
20337;DHT22;10326;53.660;10.200;2022-08-04T14:54:07;36.70;38.00
20337;DHT22;10326;53.660;10.200;2022-08-04T14:56:35;36.70;38.10
20337;DHT22;10326;53.660;10.200;2022-08-04T14:59:04;36.70;37.80
20337;DHT22;10326;53.660;10.200;2022-08-04T15:01:35;36.60;37.50
20337;DHT22;10326;53.660;10.200;2022-08-04T15:04:06;36.50;37.70
20337;DHT22;10326;53.660;10.200;2022-08-04T15:06:34;36.50;37.80
20337;DHT22;10326;53.660;10.200;2022-08-04T15:09:03;36.40;38.30
20337;DHT22;10326;53.660;10.200;2022-08-04T15:11:33;36.30;38.60
20337;DHT22;10326;53.660;10.200;2022-08-04T15:14:01;36.20;39.10
20337;DHT22;10326;53.660;10.200;2022-08-04T15:16:31;36.10;39.40
20337;DHT22;10326;53.660;10.200;2022-08-04T15:18:59;36.00;39.70
20337;DHT22;10326;53.660;10.200;2022-08-04T15:21:29;35.90;40.00
20337;DHT22;10326;53.660;10.200;2022-08-04T15:23:57;35.80;40.40
20337;DHT22;10326;53.660;10.200;2022-08-04T15:26:31;35.60;40.70
20337;DHT22;10326;53.660;10.200;2022-08-04T15:29:05;35.50;41.40
20337;DHT22;10326;53.660;10.200;2022-08-04T15:31:38;35.30;41.60
20337;DHT22;10326;53.660;10.200;2022-08-04T15:34:07;35.20;42.30
20337;DHT22;10326;53.660;10.200;2022-08-04T15:36:47;35.00;42.80
20337;DHT22;10326;53.660;10.200;2022-08-04T15:39:27;34.80;44.20
20337;DHT22;10326;53.660;10.200;2022-08-04T15:42:10;34.60;44.20
20337;DHT22;10326;53.660;10.200;2022-08-04T15:45:03;34.40;44.70
20337;DHT22;10326;53.660;10.200;2022-08-04T15:47:33;34.20;45.40
20337;DHT22;10326;53.660;10.200;2022-08-04T15:50:05;33.90;45.00
20337;DHT22;10326;53.660;10.200;2022-08-04T15:53:01;33.70;45.20
20337;DHT22;10326;53.660;10.200;2022-08-04T15:55:34;33.50;45.60
20337;DHT22;10326;53.660;10.200;2022-08-04T15:58:03;33.30;45.90
20337;DHT22;10326;53.660;10.200;2022-08-04T16:03:43;32.90;46.20
20337;DHT22;10326;53.660;10.200;2022-08-04T16:06:40;32.60;45.70
20337;DHT22;10326;53.660;10.200;2022-08-04T16:09:21;32.40;46.30
20337;DHT22;10326;53.660;10.200;2022-08-04T16:11:49;32.20;46.00
20337;DHT22;10326;53.660;10.200;2022-08-04T16:14:16;31.90;45.80
20337;DHT22;10326;53.660;10.200;2022-08-04T16:16:48;31.70;46.20
20337;DHT22;10326;53.660;10.200;2022-08-04T16:19:27;31.50;46.70
20337;DHT22;10326;53.660;10.200;2022-08-04T16:22:00;31.20;47.70
20337;DHT22;10326;53.660;10.200;2022-08-04T16:24:32;30.90;48.30
20337;DHT22;10326;53.660;10.200;2022-08-04T16:27:02;30.60;48.40
20337;DHT22;10326;53.660;10.200;2022-08-04T16:29:33;30.30;48.60
20337;DHT22;10326;53.660;10.200;2022-08-04T16:32:20;29.90;48.90
20337;DHT22;10326;53.660;10.200;2022-08-04T16:34:52;29.60;49.70
20337;DHT22;10326;53.660;10.200;2022-08-04T16:37:22;29.40;50.40
20337;DHT22;10326;53.660;10.200;2022-08-04T16:40:28;29.20;50.60
20337;DHT22;10326;53.660;10.200;2022-08-04T16:43:00;29.00;51.30
20337;DHT22;10326;53.660;10.200;2022-08-04T16:45:48;28.90;51.00
20337;DHT22;10326;53.660;10.200;2022-08-04T16:48:19;28.80;51.70
20337;DHT22;10326;53.660;10.200;2022-08-04T16:50:56;28.70;52.00
20337;DHT22;10326;53.660;10.200;2022-08-04T16:53:27;28.60;53.10